Time;durP1;ratioP1;P1;durP2;ratioP2;P2;SDS_P1;SDS_P2;PMS_P1;PMS_P2;Temp;Humidity;BMP_temperature;BMP_pressure;BME280_temperature;BME280_humidity;BME280_pressure;Samples;Min_cycle;Max_cycle;Signal;HPM_P1;HPM_P2
2022/03/15 00:00:43;;;;;;;18.88;7.47;;;6.90;99.90;;;;;;5044552;28;20026;-76
2022/03/15 00:03:08;;;;;;;13.80;6.63;;;6.90;99.90;;;;;;5047099;28;20104;-78
2022/03/15 00:05:34;;;;;;;13.52;6.40;;;6.90;99.90;;;;;;5046020;28;20040;-79
2022/03/15 00:07:59;;;;;;;13.43;6.88;;;6.90;99.90;;;;;;4997534;23;1100516;-81
2022/03/15 00:10:26;;;;;;;12.88;6.53;;;6.90;99.90;;;;;;4980959;28;20034;-84
2022/03/15 00:12:54;;;;;;;16.17;6.80;;;6.90;99.90;;;;;;4981856;28;20026;-82
2022/03/15 00:15:20;;;;;;;13.98;6.57;;;6.90;99.90;;;;;;4980552;28;20027;-83
2022/03/15 00:17:47;;;;;;;11.60;6.32;;;6.90;99.90;;;;;;4979260;28;20038;-82
2022/03/15 00:20:15;;;;;;;10.45;6.15;;;6.90;99.90;;;;;;4983179;28;20417;-83
2022/03/15 00:22:42;;;;;;;12.52;7.07;;;6.80;99.90;;;;;;4986413;28;20030;-83
2022/03/15 00:25:09;;;;;;;13.77;6.57;;;6.70;99.90;;;;;;4985995;28;20117;-83
2022/03/15 00:27:37;;;;;;;11.77;6.10;;;6.70;99.90;;;;;;4984057;28;20117;-82
2022/03/15 00:30:05;;;;;;;12.15;6.18;;;6.70;99.90;;;;;;4987126;28;20037;-83
2022/03/15 00:32:31;;;;;;;12.57;6.43;;;6.80;99.90;;;;;;4986960;28;20049;-82
2022/03/15 00:34:57;;;;;;;12.27;6.60;;;6.70;99.90;;;;;;4988764;28;20326;-84
2022/03/15 00:37:23;;;;;;;11.82;6.93;;;6.60;99.90;;;;;;5003951;28;20026;-82
2022/03/15 00:39:50;;;;;;;11.77;7.05;;;6.50;99.90;;;;;;4978478;28;20098;-81
2022/03/15 00:42:18;;;;;;;16.38;6.95;;;6.50;99.90;;;;;;4979397;28;20348;-82
2022/03/15 00:44:43;;;;;;;9.20;6.35;;;6.40;99.90;;;;;;5009919;28;20473;-82
2022/03/15 00:47:10;;;;;;;11.15;6.55;;;6.30;99.90;;;;;;4999003;28;20026;-81
2022/03/15 00:49:35;;;;;;;15.48;6.75;;;6.20;99.90;;;;;;4998333;28;20429;-83
2022/03/15 00:52:01;;;;;;;19.30;7.20;;;6.10;99.90;;;;;;5002325;28;20018;-83
2022/03/15 00:54:28;;;;;;;13.38;7.57;;;6.10;99.90;;;;;;5019158;28;20033;-82
2022/03/15 00:56:53;;;;;;;15.10;8.00;;;6.10;99.90;;;;;;5004745;28;20026;-82
2022/03/15 00:59:19;;;;;;;11.02;7.28;;;6.10;99.90;;;;;;5017267;28;20022;-81
2022/03/15 01:01:46;;;;;;;14.75;8.05;;;6.10;99.90;;;;;;4994196;28;20058;-81
2022/03/15 01:04:13;;;;;;;14.88;8.07;;;6.00;99.90;;;;;;4999305;28;20049;-83
2022/03/15 01:06:39;;;;;;;13.25;7.53;;;6.00;99.90;;;;;;5000060;28;20061;-83
2022/03/15 01:09:06;;;;;;;12.27;6.47;;;6.00;99.90;;;;;;5017147;28;20129;-82
2022/03/15 01:11:32;;;;;;;23.25;7.95;;;6.10;99.90;;;;;;5000395;28;20033;-83
2022/03/15 01:13:58;;;;;;;11.00;6.60;;;6.00;99.90;;;;;;5003139;28;20030;-82
2022/03/15 01:16:24;;;;;;;13.05;7.13;;;6.00;99.90;;;;;;5001848;28;20022;-83
2022/03/15 01:18:49;;;;;;;11.13;7.43;;;5.90;99.90;;;;;;5003475;28;20033;-83
2022/03/15 01:21:17;;;;;;;12.70;6.90;;;5.90;99.90;;;;;;5006059;28;20456;-81
2022/03/15 01:23:43;;;;;;;11.25;7.38;;;5.90;99.90;;;;;;4999314;28;20045;-82
2022/03/15 01:26:09;;;;;;;11.60;6.88;;;5.90;99.90;;;;;;4998577;28;20462;-81
2022/03/15 01:28:35;;;;;;;16.92;7.93;;;5.80;99.90;;;;;;4999227;28;20046;-81
2022/03/15 01:31:01;;;;;;;13.75;6.78;;;5.80;99.90;;;;;;5016422;28;20033;-83
2022/03/15 01:33:26;;;;;;;18.25;8.23;;;5.80;99.90;;;;;;4998325;28;20026;-84
2022/03/15 01:35:54;;;;;;;12.55;7.57;;;5.90;99.90;;;;;;5000107;28;20076;-84
2022/03/15 01:38:20;;;;;;;14.77;7.28;;;6.00;99.90;;;;;;5017231;28;20494;-84
2022/03/15 01:40:46;;;;;;;11.90;7.53;;;6.10;99.90;;;;;;5000976;28;20025;-82
2022/03/15 01:43:12;;;;;;;13.93;7.63;;;6.10;99.90;;;;;;5021225;28;20057;-83
2022/03/15 01:45:39;;;;;;;12.95;7.20;;;6.20;99.90;;;;;;5025693;28;20026;-82
2022/03/15 01:48:07;;;;;;;13.13;7.18;;;6.30;99.90;;;;;;5016740;28;20026;-80
2022/03/15 01:50:34;;;;;;;18.55;8.25;;;6.30;99.90;;;;;;5005821;28;20034;-82
2022/03/15 01:52:59;;;;;;;16.30;7.85;;;6.20;99.90;;;;;;5015110;28;20073;-81
2022/03/15 01:55:25;;;;;;;17.00;7.97;;;6.20;99.90;;;;;;4997420;28;20433;-80
2022/03/15 01:57:52;;;;;;;17.27;8.55;;;6.20;99.90;;;;;;4996940;28;20057;-82
2022/03/15 02:00:19;;;;;;;14.80;8.13;;;6.30;99.90;;;;;;4997996;28;20049;-82
2022/03/15 02:02:45;;;;;;;15.23;7.93;;;6.30;99.90;;;;;;4999021;28;20060;-81
2022/03/15 02:05:11;;;;;;;14.40;8.05;;;6.40;99.90;;;;;;4999966;28;20030;-84
2022/03/15 02:07:38;;;;;;;15.93;8.70;;;6.40;99.90;;;;;;4996940;28;20060;-81
2022/03/15 02:10:08;;;;;;;14.57;8.13;;;6.40;99.90;;;;;;4998610;28;20030;-82
2022/03/15 02:12:38;;;;;;;15.65;7.88;;;6.40;99.90;;;;;;4998485;28;20056;-81
2022/03/15 02:15:06;;;;;;;16.80;8.57;;;6.50;99.90;;;;;;4997376;28;20026;-83
2022/03/15 02:17:32;;;;;;;16.33;8.60;;;6.50;99.90;;;;;;5015377;28;20048;-83
2022/03/15 02:19:58;;;;;;;14.88;8.32;;;6.50;99.90;;;;;;4995946;28;20026;-82
2022/03/15 02:22:24;;;;;;;19.73;8.18;;;6.50;99.90;;;;;;5014735;28;20032;-81
2022/03/15 02:24:50;;;;;;;17.48;8.13;;;6.50;99.90;;;;;;5013716;28;20046;-81
2022/03/15 02:27:16;;;;;;;23.83;9.40;;;6.50;99.90;;;;;;4995889;28;20084;-82
2022/03/15 02:29:42;;;;;;;15.52;9.25;;;6.50;99.90;;;;;;5015509;28;20032;-81
2022/03/15 02:32:08;;;;;;;14.55;8.65;;;6.50;99.90;;;;;;4996607;28;20370;-83
2022/03/15 02:34:34;;;;;;;14.10;7.95;;;6.50;99.90;;;;;;4997335;28;20489;-82
2022/03/15 02:37:00;;;;;;;15.85;8.40;;;6.50;99.90;;;;;;5014872;28;20060;-83
2022/03/15 02:39:27;;;;;;;17.15;9.18;;;6.40;99.90;;;;;;4996128;28;20061;-81
2022/03/15 02:41:52;;;;;;;21.65;9.18;;;6.50;99.90;;;;;;5015068;28;20041;-83
2022/03/15 02:44:18;;;;;;;21.27;8.63;;;6.50;99.90;;;;;;4997386;28;20385;-81
2022/03/15 02:46:48;;;;;;;15.93;8.50;;;6.40;99.90;;;;;;4995723;28;20033;-81
2022/03/15 02:49:14;;;;;;;12.55;8.38;;;6.40;99.90;;;;;;4995775;28;20037;-82
2022/03/15 02:51:40;;;;;;;18.38;9.35;;;6.40;99.90;;;;;;4995921;28;20026;-83
2022/03/15 02:54:08;;;;;;;16.83;7.85;;;6.40;99.90;;;;;;4995875;28;20029;-83
2022/03/15 02:56:35;;;;;;;16.75;8.18;;;6.40;99.90;;;;;;4995776;28;20117;-83
2022/03/15 02:59:01;;;;;;;14.93;8.00;;;6.40;99.90;;;;;;4995585;28;20124;-81
2022/03/15 03:01:27;;;;;;;14.35;8.50;;;6.40;99.90;;;;;;4995536;28;20552;-82
2022/03/15 03:03:53;;;;;;;16.45;8.45;;;6.40;99.90;;;;;;4996044;28;20040;-80
2022/03/15 03:06:19;;;;;;;16.90;8.93;;;6.50;99.90;;;;;;5014279;28;20018;-82
2022/03/15 03:08:44;;;;;;;18.75;8.55;;;6.40;99.90;;;;;;4996683;28;20037;-83
2022/03/15 03:11:13;;;;;;;18.83;9.13;;;6.40;99.90;;;;;;4997842;28;20018;-85
2022/03/15 03:13:44;;;;;;;17.00;8.27;;;6.40;99.90;;;;;;4998087;28;20026;-82
2022/03/15 03:16:12;;;;;;;16.05;7.80;;;6.40;99.90;;;;;;5021377;28;20025;-83
2022/03/15 03:18:41;;;;;;;13.60;7.85;;;6.40;99.90;;;;;;5010481;28;20456;-81
2022/03/15 03:21:08;;;;;;;19.45;8.55;;;6.40;99.90;;;;;;5032026;28;20026;-82
2022/03/15 03:23:35;;;;;;;13.57;7.90;;;6.40;99.90;;;;;;4995573;28;20403;-81
2022/03/15 03:26:02;;;;;;;16.95;7.10;;;6.40;99.90;;;;;;4995524;28;20053;-82
2022/03/15 03:28:36;;;;;;;15.63;7.80;;;6.40;99.90;;;;;;5015410;28;20026;-82
2022/03/15 03:31:09;;;;;;;18.48;8.90;;;6.50;99.90;;;;;;5008547;28;20053;-84
2022/03/15 03:33:36;;;;;;;15.88;7.88;;;6.50;99.90;;;;;;5009096;28;20030;-83
2022/03/15 03:36:04;;;;;;;15.40;7.30;;;6.50;99.90;;;;;;5005823;28;20022;-83
2022/03/15 03:38:30;;;;;;;12.55;7.38;;;6.60;99.90;;;;;;5022938;28;20041;-82
2022/03/15 03:40:58;;;;;;;17.38;7.95;;;6.60;99.90;;;;;;5005527;28;20032;-83
2022/03/15 03:43:23;;;;;;;11.98;7.47;;;6.70;99.90;;;;;;4991707;28;20058;-85
2022/03/15 03:45:49;;;;;;;13.45;6.78;;;6.70;99.90;;;;;;5000281;28;20484;-83
2022/03/15 03:48:15;;;;;;;10.02;6.57;;;6.70;99.90;;;;;;5001444;28;20030;-83
2022/03/15 03:50:42;;;;;;;11.73;7.00;;;6.70;99.90;;;;;;5016412;28;20042;-81
2022/03/15 03:53:09;;;;;;;14.75;6.53;;;6.70;99.90;;;;;;5009618;28;20026;-82
2022/03/15 03:55:36;;;;;;;11.25;6.68;;;6.80;99.90;;;;;;5022143;28;20033;-81
2022/03/15 03:58:02;;;;;;;15.05;6.93;;;6.80;99.90;;;;;;4998731;28;20429;-83
2022/03/15 04:00:28;;;;;;;15.25;6.95;;;6.70;99.90;;;;;;5006317;28;20022;-81
2022/03/15 04:02:57;;;;;;;10.75;6.28;;;6.70;99.90;;;;;;5017811;28;20022;-82
2022/03/15 04:05:23;;;;;;;11.30;6.28;;;6.70;99.90;;;;;;5000644;28;20025;-81
2022/03/15 04:07:49;;;;;;;12.52;5.45;;;6.60;99.90;;;;;;5020388;28;20413;-82
2022/03/15 04:10:15;;;;;;;10.88;5.75;;;6.50;99.90;;;;;;5003053;28;20026;-82
2022/03/15 04:12:42;;;;;;;14.60;6.30;;;6.40;99.90;;;;;;4991331;28;20045;-82
2022/03/15 04:15:09;;;;;;;10.15;6.15;;;6.30;99.90;;;;;;5005895;28;20018;-83
2022/03/15 04:17:38;;;;;;;10.90;5.95;;;6.20;99.90;;;;;;5004390;28;20141;-81
2022/03/15 04:20:05;;;;;;;11.98;6.57;;;6.10;99.90;;;;;;5018753;28;20033;-81
2022/03/15 04:22:31;;;;;;;10.70;6.00;;;6.10;99.90;;;;;;5000671;28;20053;-83
2022/03/15 04:24:57;;;;;;;14.55;7.25;;;6.10;99.90;;;;;;5002544;28;20033;-82
2022/03/15 04:27:23;;;;;;;16.25;6.53;;;6.10;99.90;;;;;;5001462;28;20026;-83
2022/03/15 04:29:49;;;;;;;14.77;5.97;;;6.10;99.90;;;;;;4999729;28;20029;-83
2022/03/15 04:32:15;;;;;;;10.65;5.47;;;6.00;99.90;;;;;;4999863;28;20029;-83
2022/03/15 04:34:40;;;;;;;14.27;6.35;;;6.10;99.90;;;;;;5023867;28;20114;-85
2022/03/15 04:37:06;;;;;;;14.13;5.72;;;6.10;99.90;;;;;;4999036;28;20046;-82
2022/03/15 04:39:33;;;;;;;10.93;5.78;;;6.20;99.90;;;;;;4997513;28;20025;-83
2022/03/15 04:41:59;;;;;;;10.82;5.82;;;6.20;99.90;;;;;;4998958;28;20026;-85
2022/03/15 04:44:24;;;;;;;9.38;4.85;;;6.30;99.90;;;;;;4999008;28;20560;-83
2022/03/15 04:46:50;;;;;;;14.18;5.90;;;6.40;99.90;;;;;;5018728;28;20026;-83
2022/03/15 04:49:15;;;;;;;14.65;5.65;;;6.40;99.90;;;;;;4999368;28;20028;-85
2022/03/15 04:51:41;;;;;;;12.82;6.50;;;6.50;99.90;;;;;;5006576;28;20087;-84
2022/03/15 04:54:06;;;;;;;11.63;5.60;;;6.60;99.90;;;;;;5008063;28;20030;-82
2022/03/15 04:56:32;;;;;;;12.93;6.38;;;6.60;99.90;;;;;;5009885;28;20018;-83
2022/03/15 04:58:58;;;;;;;15.30;6.50;;;6.70;99.90;;;;;;5012375;28;20018;-82
2022/03/15 05:01:23;;;;;;;12.00;5.13;;;6.70;99.90;;;;;;5004196;28;20076;-81
2022/03/15 05:03:49;;;;;;;11.18;5.72;;;6.70;99.90;;;;;;5015784;28;20026;-80
2022/03/15 05:06:14;;;;;;;9.73;5.70;;;6.70;99.90;;;;;;5016036;28;20688;-81
2022/03/15 05:08:40;;;;;;;12.90;5.65;;;6.60;99.90;;;;;;4998389;28;20106;-81
2022/03/15 05:11:06;;;;;;;12.13;5.85;;;6.60;99.90;;;;;;5016018;28;20182;-83
2022/03/15 05:13:40;;;;;;;9.82;5.75;;;6.60;99.90;;;;;;5016813;28;20025;-82
2022/03/15 05:16:12;;;;;;;14.02;6.60;;;6.60;99.90;;;;;;4998981;28;20022;-82
2022/03/15 05:18:39;;;;;;;16.85;5.72;;;6.60;99.90;;;;;;4997766;28;20033;-83
2022/03/15 05:21:04;;;;;;;10.23;6.00;;;6.50;99.90;;;;;;5016117;28;20037;-86
2022/03/15 05:23:30;;;;;;;11.38;5.07;;;6.40;99.90;;;;;;4999200;28;20026;-84
2022/03/15 05:25:57;;;;;;;16.15;5.75;;;6.40;99.90;;;;;;4997977;28;20029;-83
2022/03/15 05:28:22;;;;;;;11.65;5.18;;;6.30;99.90;;;;;;4997905;28;20073;-84
2022/03/15 05:30:48;;;;;;;11.13;5.70;;;6.20;99.90;;;;;;5015627;28;20439;-83
2022/03/15 05:33:13;;;;;;;9.32;5.22;;;6.20;99.90;;;;;;5015704;28;20057;-84
2022/03/15 05:35:39;;;;;;;10.95;6.13;;;6.10;99.90;;;;;;5016918;28;20033;-82
2022/03/15 05:38:06;;;;;;;15.57;6.10;;;6.10;99.90;;;;;;4998845;28;20354;-84
2022/03/15 05:40:32;;;;;;;9.00;5.85;;;6.00;99.90;;;;;;5017025;28;20025;-84
2022/03/15 05:42:58;;;;;;;13.80;6.78;;;6.00;99.90;;;;;;5016812;28;20041;-84
2022/03/15 05:45:25;;;;;;;12.52;5.50;;;5.90;99.90;;;;;;5016920;28;20026;-83
2022/03/15 05:47:52;;;;;;;13.63;6.55;;;5.80;99.90;;;;;;5017251;28;20093;-82
2022/03/15 05:50:18;;;;;;;12.23;5.85;;;5.80;99.90;;;;;;4999411;28;20030;-83
2022/03/15 05:52:44;;;;;;;8.15;5.63;;;5.70;99.90;;;;;;5013700;28;20037;-84
2022/03/15 05:55:11;;;;;;;12.52;5.30;;;5.60;99.90;;;;;;5020380;28;20076;-84
2022/03/15 05:57:37;;;;;;;11.93;5.22;;;5.70;99.90;;;;;;4998087;28;20140;-83
2022/03/15 06:00:05;;;;;;;10.57;5.15;;;5.70;99.90;;;;;;4997968;28;20030;-83
2022/03/15 06:02:30;;;;;;;12.40;5.55;;;5.80;99.90;;;;;;4998599;28;20026;-84
2022/03/15 06:04:59;;;;;;;8.77;4.90;;;6.00;99.90;;;;;;4998380;28;20037;-83
2022/03/15 06:07:27;;;;;;;12.13;5.50;;;6.10;99.90;;;;;;5016317;28;20050;-84
2022/03/15 06:09:53;;;;;;;9.27;3.50;;;6.20;99.90;;;;;;5014611;28;20056;-83
2022/03/15 06:12:23;;;;;;;13.35;4.70;;;6.30;99.90;;;;;;4997421;28;20034;-82
2022/03/15 06:14:48;;;;;;;10.57;4.75;;;6.50;99.90;;;;;;4997255;28;20111;-83
2022/03/15 06:17:14;;;;;;;12.10;4.47;;;6.50;99.90;;;;;;4997040;28;20021;-82
2022/03/15 06:19:40;;;;;;;12.15;4.70;;;6.50;99.90;;;;;;5021244;22;20457;-75
2022/03/15 06:22:05;;;;;;;9.38;4.00;;;6.60;99.90;;;;;;4994886;28;20025;-75
2022/03/15 06:24:31;;;;;;;11.77;5.85;;;6.60;99.90;;;;;;5012464;28;20022;-77
2022/03/15 06:26:58;;;;;;;11.25;4.30;;;6.70;99.90;;;;;;4994524;28;20117;-75
2022/03/15 06:29:24;;;;;;;10.23;4.68;;;6.70;99.90;;;;;;5011917;28;20025;-78
2022/03/15 06:31:50;;;;;;;12.27;4.40;;;6.80;99.90;;;;;;5012438;28;20044;-77
2022/03/15 06:34:16;;;;;;;9.23;4.57;;;6.80;99.90;;;;;;5012182;28;20018;-76
2022/03/15 06:36:42;;;;;;;7.32;3.38;;;6.90;99.90;;;;;;5012444;28;20028;-76
2022/03/15 06:39:07;;;;;;;10.55;3.47;;;7.00;99.90;;;;;;4994583;28;20045;-76
2022/03/15 06:41:38;;;;;;;9.25;3.80;;;7.10;99.90;;;;;;4994826;28;20033;-76
2022/03/15 06:44:08;;;;;;;9.38;3.58;;;7.20;99.90;;;;;;5002904;28;20485;-76
2022/03/15 06:46:34;;;;;;;8.68;3.47;;;7.30;99.90;;;;;;5032601;28;20025;-78
2022/03/15 06:48:59;;;;;;;7.70;3.30;;;7.30;99.90;;;;;;5014862;28;20560;-76
2022/03/15 06:51:25;;;;;;;6.53;3.38;;;7.40;99.90;;;;;;5032493;28;20018;-76
2022/03/15 06:53:52;;;;;;;8.32;2.97;;;7.40;99.90;;;;;;5014518;28;20072;-75
2022/03/15 06:56:17;;;;;;;10.20;3.80;;;7.50;99.90;;;;;;5014290;28;20052;-75
2022/03/15 06:58:46;;;;;;;5.97;3.50;;;7.50;99.90;;;;;;5014720;28;20025;-76
2022/03/15 07:01:11;;;;;;;9.63;3.50;;;7.60;99.90;;;;;;5032170;28;20029;-76
2022/03/15 07:03:37;;;;;;;10.63;3.80;;;7.60;99.90;;;;;;5016978;28;20033;-78
2022/03/15 07:06:03;;;;;;;12.30;3.53;;;7.70;99.90;;;;;;5018456;28;20125;-74
2022/03/15 07:08:30;;;;;;;8.75;3.72;;;7.80;99.90;;;;;;5039573;28;20029;-75
2022/03/15 07:10:56;;;;;;;9.95;3.70;;;7.80;99.90;;;;;;5054813;28;20089;-75
2022/03/15 07:13:22;;;;;;;10.88;4.10;;;7.90;99.90;;;;;;5051465;28;20064;-75
2022/03/15 07:15:48;;;;;;;10.93;4.65;;;7.90;99.90;;;;;;5037161;28;20030;-77
2022/03/15 07:18:15;;;;;;;10.85;4.20;;;8.00;99.90;;;;;;5036318;28;20035;-75
2022/03/15 07:20:42;;;;;;;8.48;4.38;;;8.00;99.90;;;;;;5018378;28;20029;-76
2022/03/15 07:23:08;;;;;;;12.35;4.43;;;8.00;99.90;;;;;;5018435;28;20022;-76
2022/03/15 07:25:33;;;;;;;12.38;4.97;;;8.00;99.90;;;;;;5018413;28;20075;-76
2022/03/15 07:27:59;;;;;;;11.52;4.50;;;8.00;99.90;;;;;;5018708;28;20502;-74
2022/03/15 07:30:24;;;;;;;15.35;4.78;;;8.00;99.90;;;;;;5018643;28;20481;-76
2022/03/15 07:32:50;;;;;;;8.93;4.68;;;8.10;99.90;;;;;;5036013;28;20029;-76
2022/03/15 07:35:16;;;;;;;9.38;5.15;;;8.10;99.90;;;;;;5017641;28;20477;-75
2022/03/15 07:37:54;;;;;;;17.33;5.10;;;8.10;99.90;;;;;;5018229;28;20025;-75
2022/03/15 07:40:20;;;;;;;16.13;5.57;;;8.10;99.90;;;;;;5035949;28;20033;-75
2022/03/15 07:42:47;;;;;;;11.95;4.90;;;8.20;99.90;;;;;;5018050;28;20021;-75
2022/03/15 07:45:12;;;;;;;10.77;4.80;;;8.20;99.90;;;;;;5000872;28;20591;-76
2022/03/15 07:47:38;;;;;;;9.32;4.65;;;8.20;99.90;;;;;;4998231;28;20132;-75
2022/03/15 07:50:04;;;;;;;9.75;4.55;;;8.20;99.90;;;;;;5015715;28;20393;-76
2022/03/15 07:52:31;;;;;;;8.82;4.30;;;8.20;99.90;;;;;;4998389;28;20018;-75
2022/03/15 07:54:57;;;;;;;6.68;3.85;;;8.20;99.90;;;;;;5026730;28;20027;-75
2022/03/15 07:57:22;;;;;;;9.55;3.70;;;8.30;99.90;;;;;;5017840;28;20465;-77
2022/03/15 07:59:48;;;;;;;10.57;4.22;;;8.30;99.90;;;;;;5017599;28;20036;-77
2022/03/15 08:02:15;;;;;;;6.57;3.92;;;8.30;99.90;;;;;;5035007;28;20028;-76
2022/03/15 08:04:41;;;;;;;9.90;4.13;;;8.40;99.90;;;;;;5035078;28;20369;-74
2022/03/15 08:07:07;;;;;;;10.73;4.15;;;8.40;99.90;;;;;;5016784;28;20025;-75
2022/03/15 08:09:32;;;;;;;9.52;4.07;;;8.50;99.90;;;;;;5016817;28;20032;-74
2022/03/15 08:11:58;;;;;;;11.30;4.15;;;8.50;99.90;;;;;;5034447;28;20496;-75
2022/03/15 08:14:24;;;;;;;8.45;4.50;;;8.50;99.90;;;;;;5034120;28;20049;-77
2022/03/15 08:16:50;;;;;;;9.32;4.28;;;8.60;99.90;;;;;;5034382;28;20036;-78
2022/03/15 08:19:15;;;;;;;9.35;3.58;;;8.70;99.90;;;;;;5034302;28;20033;-74
2022/03/15 08:21:41;;;;;;;8.75;3.42;;;8.70;99.90;;;;;;5035112;28;20500;-75
2022/03/15 08:24:07;;;;;;;9.45;3.70;;;8.80;99.90;;;;;;5017557;28;20033;-76
2022/03/15 08:26:32;;;;;;;8.73;4.13;;;8.90;99.90;;;;;;5017338;28;20029;-75
2022/03/15 08:28:58;;;;;;;11.25;3.78;;;9.00;99.90;;;;;;5017106;28;20057;-75
2022/03/15 08:31:23;;;;;;;8.30;4.03;;;9.10;99.90;;;;;;5017721;28;20029;-74
2022/03/15 08:33:49;;;;;;;12.63;3.85;;;9.20;99.90;;;;;;5017762;28;20504;-75
2022/03/15 08:36:15;;;;;;;12.30;3.70;;;9.30;99.90;;;;;;5035144;28;20166;-76
2022/03/15 08:38:41;;;;;;;8.27;3.50;;;9.40;99.90;;;;;;5035417;28;20028;-75
2022/03/15 08:41:07;;;;;;;11.23;4.05;;;9.50;99.90;;;;;;5035033;28;20045;-76
2022/03/15 08:43:33;;;;;;;11.82;4.85;;;9.60;99.90;;;;;;5013083;28;20029;-78
2022/03/15 08:45:59;;;;;;;14.40;5.18;;;9.60;99.90;;;;;;4997161;28;20033;-75
2022/03/15 08:48:25;;;;;;;6.68;4.10;;;9.70;99.90;;;;;;4997201;28;20030;-77
2022/03/15 08:50:51;;;;;;;9.73;3.22;;;9.70;99.90;;;;;;4997273;28;20026;-75
2022/03/15 08:53:17;;;;;;;8.80;3.33;;;9.80;99.90;;;;;;4997488;28;20026;-77
2022/03/15 08:55:43;;;;;;;8.38;3.20;;;9.80;99.90;;;;;;5015418;28;20033;-76
2022/03/15 08:58:09;;;;;;;8.68;3.55;;;9.90;99.90;;;;;;4997297;28;20545;-76
2022/03/15 09:00:34;;;;;;;9.23;3.00;;;10.00;99.90;;;;;;4997358;28;20026;-76
2022/03/15 09:03:00;;;;;;;7.82;3.72;;;10.00;99.90;;;;;;4997377;28;20108;-76
2022/03/15 09:05:26;;;;;;;9.48;3.55;;;10.00;99.90;;;;;;4998060;28;20030;-75
2022/03/15 09:07:53;;;;;;;14.07;3.60;;;10.00;99.90;;;;;;4998549;28;20026;-77
2022/03/15 09:10:20;;;;;;;6.10;3.08;;;10.00;99.90;;;;;;5015559;28;20030;-75
2022/03/15 09:12:45;;;;;;;8.70;3.42;;;10.00;99.90;;;;;;4997200;28;20553;-76
2022/03/15 09:15:11;;;;;;;9.20;3.00;;;10.10;99.90;;;;;;5015114;28;20064;-76
2022/03/15 09:17:37;;;;;;;10.50;2.40;;;10.20;99.90;;;;;;5015115;28;20105;-76
2022/03/15 09:20:04;;;;;;;7.88;2.58;;;10.20;99.90;;;;;;5014250;28;20029;-76
2022/03/15 09:22:29;;;;;;;6.97;2.60;;;10.30;99.90;;;;;;4996927;28;20025;-76
2022/03/15 09:24:55;;;;;;;7.38;2.72;;;10.40;99.90;;;;;;5013931;28;20030;-75
2022/03/15 09:27:20;;;;;;;6.38;2.53;;;10.40;99.90;;;;;;4996565;28;20065;-75
2022/03/15 09:29:46;;;;;;;6.07;2.53;;;10.40;99.90;;;;;;5013824;28;20022;-78
2022/03/15 09:32:12;;;;;;;7.50;2.25;;;10.50;99.90;;;;;;5014021;28;20052;-75
2022/03/15 09:34:38;;;;;;;6.22;1.95;;;10.50;99.90;;;;;;4996959;28;20029;-75
2022/03/15 09:37:05;;;;;;;4.85;2.50;;;10.50;99.90;;;;;;5004140;28;20089;-76
2022/03/15 09:39:30;;;;;;;11.95;3.22;;;10.60;99.90;;;;;;5017885;28;20026;-76
2022/03/15 09:41:59;;;;;;;6.88;2.65;;;10.60;99.90;;;;;;4996060;28;20040;-76
2022/03/15 09:44:28;;;;;;;5.25;2.40;;;10.70;99.90;;;;;;5024805;28;20029;-76
2022/03/15 09:47:00;;;;;;;9.95;2.53;;;10.70;99.90;;;;;;5033451;28;20384;-76
2022/03/15 09:49:26;;;;;;;7.43;2.33;;;10.70;99.90;;;;;;5033175;28;20029;-76
2022/03/15 09:51:55;;;;;;;6.97;2.60;;;10.60;99.90;;;;;;5034187;28;20026;-76
2022/03/15 09:54:22;;;;;;;10.25;2.78;;;10.70;99.90;;;;;;5015128;28;20021;-77
2022/03/15 09:56:49;;;;;;;9.75;2.97;;;10.70;99.90;;;;;;5016214;28;20388;-75
2022/03/15 09:59:18;;;;;;;7.53;2.75;;;10.70;99.90;;;;;;5015773;28;20113;-76
2022/03/15 10:01:46;;;;;;;10.10;2.80;;;10.80;99.90;;;;;;5015420;28;20056;-76
2022/03/15 10:04:12;;;;;;;6.55;2.47;;;10.80;99.90;;;;;;5034466;28;20025;-76
2022/03/15 10:06:38;;;;;;;7.03;2.85;;;10.80;99.90;;;;;;5034732;28;20487;-77
2022/03/15 10:09:08;;;;;;;6.75;2.47;;;10.90;99.90;;;;;;5016841;28;20051;-75
2022/03/15 10:11:35;;;;;;;10.60;3.05;;;10.90;99.90;;;;;;5016172;28;20025;-76
2022/03/15 10:14:01;;;;;;;7.03;2.58;;;11.00;99.90;;;;;;5015522;28;20022;-75
2022/03/15 10:16:32;;;;;;;6.85;3.00;;;10.90;99.90;;;;;;5015513;28;20443;-76
2022/03/15 10:18:59;;;;;;;7.63;2.75;;;10.90;99.90;;;;;;5032856;28;20033;-75
2022/03/15 10:21:48;;;;;;;6.70;2.67;;;11.00;99.90;;;;;;5033243;28;20055;-75
2022/03/15 10:24:20;;;;;;;6.82;2.35;;;11.00;99.90;;;;;;5030430;28;20032;-75
2022/03/15 10:26:52;;;;;;;8.98;2.50;;;11.00;99.90;;;;;;5032699;28;20028;-76
2022/03/15 10:29:19;;;;;;;4.75;2.60;;;11.00;99.90;;;;;;5036148;28;20036;-77
2022/03/15 10:31:46;;;;;;;6.50;2.50;;;11.20;99.90;;;;;;5016645;28;20022;-76
2022/03/15 10:34:14;;;;;;;5.07;2.55;;;11.20;99.90;;;;;;5014700;28;20390;-76
2022/03/15 10:36:43;;;;;;;7.65;3.35;;;11.30;99.90;;;;;;5032230;28;20022;-76
2022/03/15 10:39:10;;;;;;;7.22;2.80;;;11.30;99.90;;;;;;5031938;28;20075;-76
2022/03/15 10:41:51;;;;;;;5.18;2.42;;;11.30;99.90;;;;;;5032385;28;20024;-76
2022/03/15 10:44:18;;;;;;;6.93;2.70;;;11.30;99.90;;;;;;5022828;28;20075;-77
2022/03/15 10:46:44;;;;;;;6.93;2.90;;;11.30;99.90;;;;;;5013029;28;20022;-76
2022/03/15 10:49:09;;;;;;;7.10;2.53;;;11.20;99.90;;;;;;4995286;28;20392;-77
2022/03/15 10:51:36;;;;;;;7.10;2.55;;;11.30;99.90;;;;;;5012853;28;20068;-75
2022/03/15 10:54:04;;;;;;;8.75;3.08;;;11.40;99.90;;;;;;5012940;28;20022;-75
2022/03/15 10:56:31;;;;;;;7.28;2.80;;;11.40;99.90;;;;;;4995214;28;20516;-75
2022/03/15 10:59:03;;;;;;;5.35;2.72;;;11.50;99.90;;;;;;5012835;28;20022;-76
2022/03/15 11:01:36;;;;;;;8.75;2.95;;;11.60;99.90;;;;;;4995199;28;20116;-76
2022/03/15 11:04:07;;;;;;;6.50;3.55;;;11.60;99.90;;;;;;4995456;28;20028;-76
2022/03/15 11:06:41;;;;;;;5.53;2.92;;;11.60;99.90;;;;;;4995669;28;20054;-77
2022/03/15 11:09:21;;;;;;;7.40;3.10;;;11.70;99.90;;;;;;5012517;28;20057;-76
2022/03/15 11:12:08;;;;;;;9.57;2.72;;;11.70;99.90;;;;;;4995167;28;20405;-76
2022/03/15 11:14:45;;;;;;;8.18;3.45;;;11.90;99.90;;;;;;5012853;28;20113;-75
2022/03/15 11:17:19;;;;;;;7.95;3.60;;;11.90;99.90;;;;;;4995319;28;20034;-75
2022/03/15 11:19:50;;;;;;;4.93;3.08;;;11.80;99.90;;;;;;5012959;28;20501;-77
2022/03/15 11:22:23;;;;;;;6.18;2.72;;;11.90;99.90;;;;;;5012545;28;20109;-76
2022/03/15 11:25:03;;;;;;;4.13;2.63;;;12.10;99.90;;;;;;5013148;28;20026;-76
2022/03/15 11:27:33;;;;;;;7.07;2.40;;;12.20;99.90;;;;;;4995207;28;20080;-77
2022/03/15 11:30:05;;;;;;;6.38;3.10;;;12.40;99.90;;;;;;4995329;28;20100;-77
2022/03/15 11:32:32;;;;;;;7.93;2.90;;;12.50;99.90;;;;;;5013573;28;20018;-77
2022/03/15 11:34:59;;;;;;;7.97;2.72;;;12.60;99.90;;;;;;4995916;28;20428;-76
2022/03/15 11:37:25;;;;;;;6.85;2.67;;;12.50;99.90;;;;;;5021965;28;20217;-75
2022/03/15 11:39:52;;;;;;;5.07;2.60;;;12.60;99.90;;;;;;5022082;28;20026;-77
2022/03/15 11:42:19;;;;;;;9.38;3.05;;;12.60;99.90;;;;;;5005184;28;20036;-76
2022/03/15 11:44:59;;;;;;;5.03;2.70;;;12.50;99.90;;;;;;5035052;28;20040;-75
2022/03/15 11:48:01;;;;;;;4.97;2.58;;;12.50;99.90;;;;;;5018060;28;20098;-75
2022/03/15 11:50:56;;;;;;;8.65;2.97;;;12.40;99.90;;;;;;5022187;28;20025;-75
2022/03/15 11:53:22;;;;;;;9.93;2.92;;;12.40;99.90;;;;;;5038193;28;20021;-76
2022/03/15 11:56:05;;;;;;;5.05;2.47;;;12.50;99.90;;;;;;5019973;28;20029;-78
2022/03/15 11:58:32;;;;;;;9.95;2.67;;;12.60;99.90;;;;;;5038029;28;20114;-75
2022/03/15 12:01:12;;;;;;;5.63;2.17;;;12.60;99.90;;;;;;5022218;28;20098;-76
2022/03/15 12:03:47;;;;;;;7.90;3.00;;;12.60;99.90;;;;;;5022867;28;20026;-75
2022/03/15 12:06:18;;;;;;;5.28;2.97;;;12.70;99.90;;;;;;5038637;28;20018;-75
2022/03/15 12:08:54;;;;;;;6.47;2.42;;;12.70;99.90;;;;;;5033905;23;20050;-78
2022/03/15 12:11:37;;;;;;;6.75;2.65;;;12.70;99.90;;;;;;5038479;28;20030;-77
2022/03/15 12:14:08;;;;;;;6.20;2.72;;;12.70;99.90;;;;;;5039388;28;20017;-76
2022/03/15 12:16:47;;;;;;;5.78;2.80;;;12.70;99.90;;;;;;5039106;28;20014;-78
2022/03/15 12:19:35;;;;;;;6.20;2.38;;;12.60;99.90;;;;;;5039506;28;20082;-78
2022/03/15 12:22:07;;;;;;;6.43;2.80;;;12.70;99.90;;;;;;5021752;28;20021;-79
2022/03/15 12:24:39;;;;;;;8.07;3.20;;;12.60;99.90;;;;;;5040515;28;20044;-78
2022/03/15 12:27:11;;;;;;;7.53;2.60;;;12.50;99.90;;;;;;5028097;28;20052;-77
2022/03/15 12:29:37;;;;;;;5.68;2.75;;;12.60;99.90;;;;;;5043448;28;20496;-76
2022/03/15 12:32:14;;;;;;;5.53;2.67;;;12.50;99.90;;;;;;5040098;28;20025;-78
2022/03/15 12:34:45;;;;;;;5.63;2.90;;;12.40;99.90;;;;;;5040119;28;20079;-76
2022/03/15 12:37:11;;;;;;;6.72;3.10;;;12.50;99.90;;;;;;5041205;28;20025;-78
2022/03/15 12:39:37;;;;;;;8.38;3.40;;;12.40;99.90;;;;;;5029509;28;20064;-78
2022/03/15 12:42:09;;;;;;;4.78;3.03;;;12.40;99.90;;;;;;5053196;28;20030;-78
2022/03/15 12:44:48;;;;;;;6.63;3.38;;;12.40;99.90;;;;;;5061524;28;20029;-77
2022/03/15 12:47:19;;;;;;;11.07;4.05;;;12.40;99.90;;;;;;5044848;28;20033;-77
2022/03/15 12:50:07;;;;;;;10.25;3.33;;;12.50;99.90;;;;;;5043121;28;20032;-78